createdAt,value
2018-10-19T00:01:23.159Z,23.07
2018-10-19T00:03:35.773Z,22.93
2018-10-19T00:05:44.650Z,21.67
2018-10-19T00:07:57.327Z,20.40
2018-10-19T00:10:09.566Z,23.03
2018-10-19T00:12:24.626Z,21.77
2018-10-19T00:14:38.866Z,23.60
2018-10-19T00:16:48.418Z,23.07
2018-10-19T00:19:05.924Z,24.23
2018-10-19T00:21:17.805Z,21.53
2018-10-19T00:23:28.997Z,21.37
2018-10-19T00:25:37.233Z,21.20
2018-10-19T00:27:42.618Z,22.07
2018-10-19T00:30:17.228Z,22.30
2018-10-19T00:32:32.849Z,21.87
2018-10-19T00:34:43.403Z,21.63
2018-10-19T00:36:55.600Z,21.30
2018-10-19T00:39:09.466Z,22.23
2018-10-19T00:41:21.717Z,22.77
2018-10-19T00:43:31.125Z,25.73
2018-10-19T00:45:51.135Z,22.83
2018-10-19T00:48:21.066Z,21.67
2018-10-19T00:50:45.375Z,21.80
2018-10-19T00:53:01.589Z,23.10
2018-10-19T00:55:14.170Z,23.50
2018-10-19T00:57:23.059Z,23.57
2018-10-19T00:59:38.054Z,21.90
2018-10-19T01:01:47.283Z,20.33
2018-10-19T01:03:56.261Z,22.57
2018-10-19T01:06:05.726Z,23.37
2018-10-19T01:08:15.663Z,24.17
2018-10-19T01:10:26.654Z,23.77
2018-10-19T01:12:38.948Z,23.67
2018-10-19T01:14:47.671Z,21.37
2018-10-19T01:16:56.665Z,24.07
2018-10-19T01:19:05.903Z,23.80
2018-10-19T01:21:18.084Z,22.10
2018-10-19T01:23:30.450Z,23.80
2018-10-19T01:25:44.346Z,23.90
2018-10-19T01:27:49.580Z,23.37
2018-10-19T01:29:57.629Z,22.87
2018-10-19T01:32:06.778Z,23.07
2018-10-19T01:34:17.928Z,23.27
2018-10-19T01:36:57.576Z,22.40
2018-10-19T01:39:06.182Z,23.00
2018-10-19T01:41:14.919Z,21.70
2018-10-19T01:43:24.750Z,23.57
2018-10-19T01:45:32.736Z,21.80
2018-10-19T01:47:41.281Z,23.70
2018-10-19T01:49:50.567Z,23.37
2018-10-19T01:52:01.170Z,24.47
2018-10-19T01:54:09.756Z,24.50
2018-10-19T01:56:17.713Z,22.47
2018-10-19T01:58:25.789Z,23.17
2018-10-19T02:00:33.764Z,25.37
2018-10-19T02:02:41.752Z,22.73
2018-10-19T02:04:50.058Z,24.77
2018-10-19T02:06:58.234Z,23.20
2018-10-19T02:09:07.315Z,22.40
2018-10-19T02:11:15.354Z,23.53
2018-10-19T02:13:23.404Z,24.57
2018-10-19T02:15:31.365Z,28.30
2018-10-19T02:17:39.556Z,28.53
2018-10-19T02:19:47.597Z,25.93
2018-10-19T02:21:55.610Z,25.20
2018-10-19T02:24:03.623Z,25.23
2018-10-19T02:26:11.591Z,23.93
2018-10-19T02:28:20.261Z,21.90
2018-10-19T02:30:28.395Z,24.07
2018-10-19T02:32:36.390Z,21.60
2018-10-19T02:34:44.356Z,20.47
2018-10-19T02:36:52.442Z,24.07
2018-10-19T02:39:00.712Z,23.27
2018-10-19T02:41:09.038Z,25.07
2018-10-19T02:43:16.940Z,27.10
2018-10-19T02:48:11.207Z,21.17
2018-10-19T02:50:19.217Z,24.50
2018-10-19T02:52:27.239Z,22.90
2018-10-19T02:54:35.223Z,26.33
2018-10-19T02:56:43.233Z,27.40
2018-10-19T02:58:51.208Z,23.27
2018-10-19T03:00:59.228Z,23.33
2018-10-19T03:03:07.502Z,23.37
2018-10-19T03:05:15.444Z,22.60
2018-10-19T03:07:23.475Z,23.07
2018-10-19T03:09:31.424Z,21.77
2018-10-19T03:11:39.425Z,21.10
2018-10-19T03:13:47.442Z,22.07
2018-10-19T03:15:57.752Z,29.10
2018-10-19T03:18:05.772Z,28.70
2018-10-19T03:20:14.309Z,29.37
2018-10-19T03:22:22.201Z,28.83
2018-10-19T03:24:30.275Z,31.73
2018-10-19T03:26:38.546Z,27.87
2018-10-19T03:28:46.516Z,28.30
2018-10-19T03:30:54.592Z,27.90
2018-10-19T03:33:02.604Z,26.77
2018-10-19T03:35:10.689Z,25.70
2018-10-19T03:37:18.539Z,25.40
2018-10-19T03:39:27.582Z,25.30
2018-10-19T03:41:35.605Z,25.07
2018-10-19T03:43:43.548Z,28.13
2018-10-19T03:45:51.875Z,27.67
2018-10-19T03:47:59.897Z,25.57
2018-10-19T03:50:08.726Z,24.90
2018-10-19T03:52:16.725Z,23.90
2018-10-19T03:54:24.726Z,27.23
2018-10-19T03:56:32.797Z,27.43
2018-10-19T03:58:43.931Z,25.07
2018-10-19T04:00:51.836Z,24.03
2018-10-19T04:02:59.983Z,23.03
2018-10-19T04:05:08.400Z,20.90
2018-10-19T04:07:16.476Z,22.40
2018-10-19T04:09:24.928Z,22.40
2018-10-19T04:11:34.102Z,21.10
2018-10-19T04:13:42.122Z,22.20
2018-10-19T04:15:50.122Z,21.27
2018-10-19T04:17:58.901Z,21.40
2018-10-19T04:20:06.961Z,20.67
2018-10-19T04:22:14.950Z,20.53
2018-10-19T04:24:23.015Z,20.60
2018-10-19T04:26:29.309Z,22.03
2018-10-19T04:28:34.602Z,20.83
2018-10-19T04:30:42.667Z,21.47
2018-10-19T04:32:50.795Z,21.17
2018-10-19T04:34:58.969Z,20.60
2018-10-19T04:37:11.120Z,20.97
2018-10-19T04:39:20.517Z,21.83
2018-10-19T04:41:28.628Z,21.03
2018-10-19T04:43:36.635Z,22.37
2018-10-19T04:45:44.627Z,21.57
2018-10-19T04:47:52.750Z,21.37
2018-10-19T04:50:00.610Z,21.97
2018-10-19T04:52:08.736Z,21.77
2018-10-19T04:54:16.795Z,20.80
2018-10-19T04:56:24.855Z,21.27
2018-10-19T04:58:33.626Z,21.30
2018-10-19T05:00:41.668Z,18.07
2018-10-19T05:02:50.759Z,21.50
2018-10-19T05:04:58.785Z,19.93
2018-10-19T05:07:06.863Z,22.87
2018-10-19T05:09:15.450Z,22.80
2018-10-19T05:11:23.501Z,21.57
2018-10-19T05:13:31.515Z,20.80
2018-10-19T05:15:39.547Z,22.47
2018-10-19T05:17:47.575Z,19.70
2018-10-19T05:19:55.729Z,20.90
2018-10-19T05:22:03.797Z,19.50
2018-10-19T05:24:11.751Z,19.87
2018-10-19T05:26:20.182Z,22.00
2018-10-19T05:28:25.433Z,19.70
2018-10-19T05:30:33.513Z,20.47
2018-10-19T05:32:42.863Z,21.17
2018-10-19T05:34:50.737Z,21.37
2018-10-19T05:36:58.845Z,20.50
2018-10-19T05:39:09.491Z,21.07
2018-10-19T05:41:17.558Z,20.47
2018-10-19T05:43:25.542Z,20.67
2018-10-19T05:45:33.527Z,21.20
2018-10-19T05:47:42.185Z,20.33
2018-10-19T05:49:50.289Z,21.77
2018-10-19T05:51:58.451Z,20.57
2018-10-19T05:54:09.076Z,21.23
2018-10-19T05:56:17.464Z,21.03
2018-10-19T05:58:25.478Z,18.60
2018-10-19T06:00:33.511Z,20.10
2018-10-19T06:02:41.594Z,18.97
2018-10-19T06:04:49.710Z,18.50
2018-10-19T06:06:58.816Z,18.60
2018-10-19T06:09:08.708Z,18.67
2018-10-19T06:11:18.723Z,18.13
2018-10-19T06:13:24.757Z,18.43
2018-10-19T06:15:32.860Z,19.87
2018-10-19T06:17:41.144Z,19.30
2018-10-19T06:19:49.235Z,18.17
2018-10-19T06:21:59.692Z,18.53
2018-10-19T06:24:09.223Z,19.80
2018-10-19T06:26:14.558Z,20.40
2018-10-19T06:28:22.509Z,20.70
2018-10-19T06:30:30.516Z,21.33
2018-10-19T06:32:39.044Z,22.20
2018-10-19T06:34:47.071Z,20.47
2018-10-19T06:36:57.485Z,19.10
2018-10-19T06:39:06.013Z,20.60
2018-10-19T06:41:15.839Z,16.67
2018-10-19T06:43:31.872Z,18.37
2018-10-19T06:45:39.952Z,19.47
2018-10-19T06:47:48.059Z,17.27
2018-10-19T06:49:56.071Z,17.73
2018-10-19T06:52:04.052Z,19.03
2018-10-19T06:54:12.035Z,16.97
2018-10-19T06:56:20.004Z,15.07
2018-10-19T06:58:28.048Z,16.13
2018-10-19T07:00:36.062Z,15.07
2018-10-19T07:02:44.680Z,16.73
2018-10-19T07:04:52.688Z,16.03
2018-10-19T07:07:00.687Z,17.57
2018-10-19T07:09:09.794Z,16.27
2018-10-19T07:11:17.899Z,16.47
2018-10-19T07:13:25.812Z,18.00
2018-10-19T07:15:33.924Z,17.80
2018-10-19T07:17:41.815Z,20.37
2018-10-19T07:19:49.815Z,19.20
2018-10-19T07:21:57.875Z,18.53
2018-10-19T07:24:06.026Z,19.77
2018-10-19T07:26:14.117Z,18.13
2018-10-19T07:28:22.691Z,17.87
2018-10-19T07:30:30.785Z,17.87
2018-10-19T07:32:38.862Z,18.20
2018-10-19T07:34:46.945Z,17.57
2018-10-19T07:36:55.001Z,17.50
2018-10-19T07:39:03.006Z,19.83
2018-10-19T07:41:11.218Z,18.73
2018-10-19T07:43:21.044Z,19.10
2018-10-19T07:45:29.967Z,19.90
2018-10-19T07:47:43.654Z,20.67
2018-10-19T07:49:52.779Z,20.37
2018-10-19T07:52:07.753Z,20.10
2018-10-19T07:54:22.352Z,20.17
2018-10-19T07:56:49.065Z,20.30
2018-10-19T07:59:00.029Z,20.90
2018-10-19T08:01:10.224Z,23.43
2018-10-19T08:06:10.170Z,19.60
2018-10-19T08:08:27.796Z,21.70
2018-10-19T08:10:36.778Z,23.00
2018-10-19T08:12:45.230Z,24.03
2018-10-19T08:14:57.652Z,22.20
2018-10-19T08:17:07.606Z,23.07
2018-10-19T08:19:18.559Z,22.80
2018-10-19T08:21:33.189Z,21.40
2018-10-19T08:23:51.210Z,22.50
2018-10-19T08:25:56.801Z,23.27
2018-10-19T08:28:25.381Z,24.40
2018-10-19T08:30:56.687Z,22.47
2018-10-19T08:33:14.825Z,22.13
2018-10-19T08:35:30.450Z,23.70
2018-10-19T08:40:16.113Z,23.50
2018-10-19T08:42:50.760Z,24.90
2018-10-19T08:45:05.988Z,24.27
2018-10-19T08:47:15.728Z,24.07
2018-10-19T08:49:34.428Z,22.87
2018-10-19T08:51:46.306Z,24.90
2018-10-19T08:56:44.934Z,22.80
2018-10-19T08:59:03.016Z,24.13
2018-10-19T09:01:37.315Z,25.50
2018-10-19T09:03:58.818Z,23.50
2018-10-19T09:06:18.778Z,23.00
2018-10-19T09:08:28.315Z,26.20
2018-10-19T09:10:40.930Z,23.57
2018-10-19T09:12:49.681Z,24.07
2018-10-19T09:15:06.157Z,24.83
2018-10-19T09:17:26.896Z,24.40
2018-10-19T09:19:36.373Z,24.00
2018-10-19T09:21:45.094Z,24.20
2018-10-19T09:23:53.963Z,24.87
2018-10-19T09:26:03.971Z,25.80
2018-10-19T09:28:16.970Z,24.57
2018-10-19T09:30:27.259Z,25.67
2018-10-19T09:32:48.077Z,24.30
2018-10-19T09:35:03.022Z,23.47
2018-10-19T09:37:14.179Z,22.90
2018-10-19T09:39:33.027Z,24.63
2018-10-19T09:41:45.713Z,24.20
2018-10-19T09:44:03.233Z,24.20
2018-10-19T09:46:20.705Z,24.70
2018-10-19T09:48:34.425Z,24.60
2018-10-19T09:50:47.313Z,24.93
2018-10-19T09:53:04.297Z,25.00
2018-10-19T09:55:12.834Z,24.20
2018-10-19T09:57:57.638Z,24.57
2018-10-19T10:00:09.375Z,26.10
2018-10-19T10:02:21.310Z,26.80
2018-10-19T10:04:53.825Z,26.77
2018-10-19T10:07:03.761Z,27.07
2018-10-19T10:09:16.423Z,25.70
2018-10-19T10:11:27.515Z,27.13
2018-10-19T10:13:38.521Z,22.47
2018-10-19T10:15:47.531Z,24.30
2018-10-19T10:17:57.570Z,27.17
2018-10-19T10:20:05.769Z,26.80
2018-10-19T10:22:24.064Z,25.07
2018-10-19T10:24:32.530Z,26.60
2018-10-19T10:26:49.501Z,26.90
2018-10-19T10:29:01.785Z,26.50
2018-10-19T10:31:09.943Z,25.90
2018-10-19T10:33:16.070Z,28.47
2018-10-19T10:35:24.365Z,27.70
2018-10-19T10:37:32.556Z,26.27
2018-10-19T10:39:40.566Z,25.90
2018-10-19T10:41:52.154Z,28.20
2018-10-19T10:44:01.631Z,25.77
2018-10-19T10:46:10.323Z,23.80
2018-10-19T10:48:30.000Z,27.70
2018-10-19T10:50:38.996Z,24.90
2018-10-19T10:52:47.240Z,25.27
2018-10-19T10:54:55.448Z,25.77
2018-10-19T10:57:03.678Z,24.83
2018-10-19T10:59:12.161Z,25.80
2018-10-19T11:01:20.487Z,25.70
2018-10-19T11:03:30.957Z,27.13
2018-10-19T11:05:39.029Z,24.37
2018-10-19T11:07:47.919Z,22.90
2018-10-19T11:09:57.453Z,24.10
2018-10-19T11:12:05.578Z,26.07
2018-10-19T11:14:13.745Z,24.70
2018-10-19T11:16:21.813Z,24.67
2018-10-19T11:18:29.841Z,25.43
2018-10-19T11:20:37.912Z,23.77
2018-10-19T11:22:46.050Z,25.37
2018-10-19T11:24:54.060Z,24.70
2018-10-19T11:27:02.170Z,25.63
2018-10-19T11:29:10.172Z,23.90
2018-10-19T11:31:18.311Z,25.03
2018-10-19T11:33:25.840Z,23.93
2018-10-19T11:35:33.855Z,23.00
2018-10-19T11:37:41.932Z,22.40
2018-10-19T11:40:40.021Z,21.30
2018-10-19T11:42:48.051Z,22.70
2018-10-19T11:44:56.004Z,21.50
2018-10-19T11:47:04.182Z,22.07
2018-10-19T11:49:12.309Z,23.10
2018-10-19T11:51:20.324Z,24.60
2018-10-19T11:53:28.403Z,23.07
2018-10-19T11:55:36.463Z,22.20
2018-10-19T11:57:44.550Z,22.47
2018-10-19T11:59:52.629Z,22.47
2018-10-19T12:02:01.103Z,22.70
2018-10-19T12:04:17.031Z,22.97
2018-10-19T12:06:25.854Z,22.40
2018-10-19T12:08:33.918Z,21.67
2018-10-19T12:10:42.076Z,21.03
2018-10-19T12:12:50.110Z,20.00
2018-10-19T12:14:58.397Z,22.37
2018-10-19T12:17:06.600Z,22.50
2018-10-19T12:19:14.828Z,21.73
2018-10-19T12:21:22.922Z,25.40
2018-10-19T12:23:31.732Z,23.07
2018-10-19T12:25:39.945Z,22.40
2018-10-19T12:27:47.979Z,23.00
2018-10-19T12:29:56.054Z,23.10
2018-10-19T12:32:04.321Z,22.30
2018-10-19T12:34:10.573Z,23.60
2018-10-19T12:36:18.625Z,24.07
2018-10-19T12:38:26.720Z,23.97
2018-10-19T12:40:34.993Z,23.30
2018-10-19T12:42:42.947Z,21.63
2018-10-19T12:44:50.992Z,22.00
2018-10-19T12:47:55.361Z,23.23
2018-10-19T12:50:05.302Z,23.20
2018-10-19T12:52:14.639Z,23.27
2018-10-19T12:54:22.763Z,21.77
2018-10-19T12:56:30.723Z,23.07
2018-10-19T12:58:39.784Z,21.50
2018-10-19T13:00:59.263Z,22.07
2018-10-19T13:03:07.365Z,22.53
2018-10-19T13:05:18.649Z,22.23
2018-10-19T13:07:27.668Z,22.67
2018-10-19T13:09:41.530Z,24.07
2018-10-19T13:13:19.083Z,20.93
2018-10-19T13:15:27.153Z,19.70
2018-10-19T13:17:42.688Z,20.77
2018-10-19T13:20:01.831Z,25.40
2018-10-19T13:22:25.664Z,22.57
2018-10-19T13:24:33.814Z,22.50
2018-10-19T13:26:56.207Z,22.20
2018-10-19T13:29:15.615Z,19.60
2018-10-19T13:33:59.434Z,22.70
2018-10-19T13:38:56.188Z,22.00
2018-10-19T13:41:04.325Z,23.40
2018-10-19T13:43:49.894Z,21.37
2018-10-19T13:46:00.220Z,22.57
2018-10-19T13:48:36.952Z,23.80
2018-10-19T13:50:53.268Z,22.47
2018-10-19T13:53:07.208Z,23.10
2018-10-19T13:55:25.218Z,22.27
2018-10-19T13:57:43.621Z,23.97
2018-10-19T13:59:50.382Z,20.73
2018-10-19T14:02:03.637Z,21.80
2018-10-19T14:04:11.613Z,23.13
2018-10-19T14:06:26.719Z,22.77
2018-10-19T14:08:52.805Z,20.10
2018-10-19T14:11:17.337Z,22.00
2018-10-19T14:13:34.136Z,20.27
2018-10-19T14:15:55.132Z,21.17
2018-10-19T14:18:03.197Z,21.63
2018-10-19T14:20:17.656Z,22.17
2018-10-19T14:22:35.440Z,22.60
2018-10-19T14:24:53.710Z,22.23
2018-10-19T14:27:15.492Z,20.80
2018-10-19T14:29:23.757Z,20.80
2018-10-19T14:31:39.525Z,21.77
2018-10-19T14:34:17.142Z,22.30
2018-10-19T14:36:27.076Z,21.67
2018-10-19T14:38:59.765Z,20.70
2018-10-19T14:41:23.610Z,21.00
2018-10-19T14:43:27.562Z,20.90
2018-10-19T14:45:36.618Z,19.53
2018-10-19T14:47:47.176Z,19.27
2018-10-19T14:49:56.514Z,20.93
2018-10-19T14:52:10.714Z,20.00
2018-10-19T14:54:20.020Z,21.30
2018-10-19T14:56:37.071Z,20.17
2018-10-19T14:58:45.822Z,21.20
2018-10-19T15:00:54.902Z,20.80
2018-10-19T15:03:04.439Z,22.37
2018-10-19T15:05:20.336Z,20.47
2018-10-19T15:07:28.449Z,20.07
2018-10-19T15:09:36.671Z,20.97
2018-10-19T15:11:50.164Z,19.00
2018-10-19T15:14:03.200Z,20.93
2018-10-19T15:16:14.724Z,21.40
2018-10-19T15:18:25.015Z,21.23
2018-10-19T15:20:35.273Z,19.70
2018-10-19T15:22:44.334Z,20.07
2018-10-19T15:24:57.634Z,20.37
2018-10-19T15:27:09.640Z,19.17
2018-10-19T15:29:22.261Z,18.27
2018-10-19T15:31:51.829Z,19.60
2018-10-19T15:34:06.916Z,18.60
2018-10-19T15:36:14.279Z,19.37
2018-10-19T15:38:27.299Z,20.50
2018-10-19T15:40:37.649Z,19.50
2018-10-19T15:42:46.606Z,19.60
2018-10-19T15:44:56.038Z,19.93
2018-10-19T15:47:04.522Z,20.20
2018-10-19T15:49:13.676Z,19.50
2018-10-19T15:51:24.295Z,19.30
2018-10-19T15:53:32.914Z,21.00
2018-10-19T15:55:43.603Z,20.20
2018-10-19T15:57:51.875Z,19.07
2018-10-19T16:00:00.411Z,20.10
2018-10-19T16:02:12.808Z,18.50
2018-10-19T16:04:25.572Z,18.27
2018-10-19T16:06:35.240Z,17.70
2018-10-19T16:08:43.623Z,19.00
2018-10-19T16:10:51.743Z,18.17
2018-10-19T16:13:01.044Z,18.17
2018-10-19T16:15:12.896Z,17.80
2018-10-19T16:17:27.948Z,16.83
2018-10-19T16:19:38.668Z,17.80
2018-10-19T16:24:55.597Z,15.97
2018-10-19T16:27:03.821Z,17.50
2018-10-19T16:29:11.887Z,16.23
2018-10-19T16:31:20.510Z,17.20
2018-10-19T16:33:40.615Z,16.97
2018-10-19T16:35:51.966Z,17.57
2018-10-19T16:38:06.784Z,15.07
2018-10-19T16:40:18.335Z,15.70
2018-10-19T16:42:27.510Z,14.67
2018-10-19T16:44:36.984Z,14.47
2018-10-19T16:46:45.241Z,14.00
2018-10-19T16:48:53.525Z,14.20
2018-10-19T16:51:01.741Z,14.47
2018-10-19T16:53:13.495Z,14.40
2018-10-19T16:55:24.706Z,13.37
2018-10-19T16:57:33.234Z,14.23
2018-10-19T16:59:42.290Z,11.77
2018-10-19T17:01:51.822Z,14.37
2018-10-19T17:04:00.236Z,14.60
2018-10-19T17:06:09.157Z,13.10
2018-10-19T17:08:21.864Z,13.53
2018-10-19T17:10:30.654Z,14.40
2018-10-19T17:12:43.299Z,15.53
2018-10-19T17:14:52.791Z,14.37
2018-10-19T17:17:02.575Z,14.93
2018-10-19T17:19:16.876Z,15.50
2018-10-19T17:21:28.911Z,14.57
2018-10-19T17:23:41.975Z,14.30
2018-10-19T17:25:50.684Z,14.43
2018-10-19T17:27:59.155Z,14.80
2018-10-19T17:30:09.360Z,15.60
2018-10-19T17:32:18.826Z,15.47
2018-10-19T17:34:30.400Z,15.87
2018-10-19T17:36:42.184Z,15.50
2018-10-19T17:38:52.459Z,15.27
2018-10-19T17:40:57.972Z,15.63
2018-10-19T17:43:06.315Z,16.40
2018-10-19T17:45:23.606Z,17.07
2018-10-19T17:47:39.242Z,17.20
2018-10-19T17:49:48.667Z,15.20
2018-10-19T17:52:01.384Z,15.67
2018-10-19T17:54:17.056Z,16.03
2018-10-19T17:56:27.902Z,15.97
2018-10-19T17:58:42.310Z,16.77
2018-10-19T18:00:51.053Z,16.70
2018-10-19T18:03:00.215Z,17.70
2018-10-19T18:05:09.460Z,17.80
2018-10-19T18:07:18.491Z,16.07
2018-10-19T18:09:30.856Z,18.20
2018-10-19T18:11:39.821Z,16.20
2018-10-19T18:13:47.821Z,16.20
2018-10-19T18:15:56.312Z,14.90
2018-10-19T18:18:04.515Z,16.37
2018-10-19T18:20:12.698Z,16.90
2018-10-19T18:22:27.400Z,16.30
2018-10-19T18:25:17.600Z,15.20
2018-10-19T18:28:02.878Z,16.27
2018-10-19T18:31:09.868Z,15.60
2018-10-19T18:34:00.833Z,20.03
2018-10-19T18:35:50.119Z,19.30
2018-10-19T18:39:01.906Z,17.73
2018-10-19T18:41:14.241Z,18.00
2018-10-19T18:43:53.203Z,19.30
2018-10-19T18:46:22.480Z,19.90
2018-10-19T18:48:50.668Z,17.70
2018-10-19T18:51:20.693Z,18.20
2018-10-19T18:53:48.855Z,18.10
2018-10-19T18:56:06.563Z,17.10
2018-10-19T19:01:28.211Z,17.57
2018-10-19T19:03:34.738Z,18.37
2018-10-19T19:06:00.690Z,19.70
2018-10-19T19:08:19.877Z,20.43
2018-10-19T19:10:42.685Z,19.80
2018-10-19T19:13:15.262Z,19.03
2018-10-19T19:15:36.152Z,17.57
2018-10-19T19:17:48.135Z,17.73
2018-10-19T19:22:26.365Z,22.47
2018-10-19T19:25:02.449Z,24.80
2018-10-19T19:27:16.394Z,23.97
2018-10-19T19:29:26.240Z,24.07
2018-10-19T19:31:35.687Z,22.07
2018-10-19T19:34:14.234Z,19.07
2018-10-19T19:36:36.218Z,15.03
2018-10-19T19:38:55.309Z,14.90
2018-10-19T19:41:25.900Z,15.70
2018-10-19T19:43:39.391Z,16.27
2018-10-19T19:45:49.074Z,16.80
2018-10-19T19:48:23.100Z,18.17
2018-10-19T19:50:32.413Z,17.20
2018-10-19T19:52:50.709Z,18.00
2018-10-19T19:55:06.439Z,18.50
2018-10-19T19:57:15.628Z,16.77
2018-10-19T19:59:32.085Z,17.17
2018-10-19T20:01:50.228Z,17.13
2018-10-19T20:04:11.869Z,16.13
2018-10-19T20:06:20.712Z,17.80
2018-10-19T20:08:28.875Z,17.70
2018-10-19T20:10:37.051Z,18.47
2018-10-19T20:12:45.259Z,17.27
2018-10-19T20:14:53.328Z,19.13
2018-10-19T20:17:01.496Z,17.07
2018-10-19T20:19:09.498Z,18.17
2018-10-19T20:21:17.770Z,17.80
2018-10-19T20:23:25.928Z,18.27
2018-10-19T20:25:34.165Z,17.53
2018-10-19T20:27:42.603Z,17.00
2018-10-19T20:29:50.664Z,17.83
2018-10-19T20:31:58.773Z,17.50
2018-10-19T20:34:07.082Z,16.43
2018-10-19T20:36:15.306Z,18.77
2018-10-19T20:38:23.487Z,17.50
2018-10-19T20:40:31.545Z,17.70
2018-10-19T20:42:39.656Z,18.13
2018-10-19T20:44:45.208Z,18.20
2018-10-19T20:46:53.296Z,21.30
2018-10-19T20:49:08.226Z,19.97
2018-10-19T20:51:25.190Z,19.90
2018-10-19T20:53:55.833Z,19.77
2018-10-19T20:56:09.845Z,17.77
2018-10-19T20:58:21.543Z,17.27
2018-10-19T21:00:38.565Z,17.43
2018-10-19T21:02:58.695Z,18.50
2018-10-19T21:05:22.445Z,16.67
2018-10-19T21:07:52.644Z,18.40
2018-10-19T21:10:04.451Z,18.10
2018-10-19T21:13:00.393Z,19.50
2018-10-19T21:15:30.105Z,16.50
2018-10-19T21:17:58.218Z,15.67
2018-10-19T21:20:34.488Z,15.90
2018-10-19T21:23:15.914Z,14.80
2018-10-19T21:26:15.734Z,14.33
2018-10-19T21:28:44.638Z,14.07
2018-10-19T21:31:44.110Z,13.97
2018-10-19T21:33:58.041Z,16.40
2018-10-19T21:36:14.132Z,16.90
2018-10-19T21:38:34.367Z,15.63
2018-10-19T21:40:54.768Z,15.20
2018-10-19T21:43:59.656Z,14.27
2018-10-19T21:55:57.490Z,11.20
2018-10-19T21:58:29.838Z,12.40
2018-10-19T22:00:41.295Z,11.73
2018-10-19T22:05:36.875Z,11.00
2018-10-19T22:07:48.397Z,10.73
2018-10-19T22:10:06.352Z,11.40
2018-10-19T22:12:31.710Z,11.83
2018-10-19T22:14:43.823Z,12.50
2018-10-19T22:16:54.465Z,12.90
2018-10-19T22:25:11.397Z,14.07
2018-10-19T22:27:20.574Z,16.97
2018-10-19T22:29:35.981Z,16.50
2018-10-19T22:31:52.550Z,13.87
2018-10-19T22:34:04.957Z,17.87
2018-10-19T22:38:37.766Z,17.13
2018-10-19T22:43:40.174Z,7.27
2018-10-19T22:45:49.602Z,6.20
2018-10-19T22:47:55.755Z,6.23
2018-10-19T22:50:04.953Z,6.77
2018-10-19T22:52:24.350Z,7.00
2018-10-19T22:54:39.871Z,8.80
2018-10-19T22:57:10.355Z,8.37
2018-10-19T23:02:04.286Z,9.27
2018-10-19T23:04:19.048Z,9.13
2018-10-19T23:06:53.583Z,10.03
2018-10-19T23:11:42.170Z,10.20
2018-10-19T23:14:16.685Z,10.40
2018-10-19T23:16:42.298Z,10.90
2018-10-19T23:19:02.463Z,11.53
2018-10-19T23:21:14.322Z,12.70
2018-10-19T23:26:22.674Z,15.40
2018-10-19T23:28:42.458Z,15.73
2018-10-19T23:30:54.217Z,15.57
2018-10-19T23:33:06.856Z,17.43
2018-10-19T23:35:16.600Z,18.33
2018-10-19T23:37:32.330Z,17.20
2018-10-19T23:39:44.146Z,18.90
2018-10-19T23:41:57.144Z,16.03
2018-10-19T23:44:12.280Z,18.83
2018-10-19T23:46:28.956Z,16.27
2018-10-19T23:48:37.363Z,19.23
2018-10-19T23:50:47.192Z,16.60
2018-10-19T23:53:02.537Z,19.10
2018-10-19T23:55:10.055Z,17.00
2018-10-19T23:57:33.297Z,17.87
2018-10-19T23:59:51.956Z,18.30
